Time,TemperatureF,DewpointF,PressureIn,WindDirection,WindDirectionDegrees,WindSpeedMPH,WindSpeedGustMPH,Humidity,HourlyPrecipIn,Conditions,Clouds,dailyrainin,SolarRadiationWatts/m^2,SoftwareType,DateUTC
2013-05-07 00:03:00,60.0,54.8,30.01,East,84,3.5,3.5,83,0.01,RA,,0.00,0.0,WeatherDisplay:10.37,2013-05-06 22:03:00,
2013-05-07 00:08:00,59.8,54.6,30.01,East,84,3.5,3.5,83,0.01,RA,,0.00,0.0,WeatherDisplay:10.37,2013-05-06 22:08:00,
2013-05-07 00:13:00,59.6,54.4,30.01,East,83,3.5,3.5,83,0.01,CLR,,0.00,0.0,WeatherDisplay:10.37,2013-05-06 22:13:00,
2013-05-07 00:18:00,59.5,54.3,30.01,East,84,2.3,2.3,83,0.01,CLR,,0.00,0.0,WeatherDisplay:10.37,2013-05-06 22:18:00,
2013-05-07 00:23:00,59.4,54.2,30.02,East,86,3.5,3.5,83,0.01,CLR,,0.00,0.0,WeatherDisplay:10.37,2013-05-06 22:23:00,
2013-05-07 00:28:00,59.3,54.1,30.02,East,93,4.0,4.0,83,0.01,CLR,,0.00,0.0,WeatherDisplay:10.37,2013-05-06 22:28:00,
2013-05-07 00:33:00,59.3,54.1,30.02,East,93,4.0,4.0,83,0.01,CLR,,0.00,0.0,WeatherDisplay:10.37,2013-05-06 22:33:00,
2013-05-07 00:38:00,59.2,54.0,30.01,East,93,2.3,2.3,83,0.01,CLR,,0.00,0.0,WeatherDisplay:10.37,2013-05-06 22:38:00,
2013-05-07 00:43:00,59.2,54.0,30.01,East,93,2.3,2.3,83,0.01,CLR,,0.00,0.0,WeatherDisplay:10.37,2013-05-06 22:43:00,
2013-05-07 00:48:00,59.0,53.8,30.01,East,93,2.3,2.3,83,0.01,CLR,,0.00,0.0,WeatherDisplay:10.37,2013-05-06 22:48:00,
2013-05-07 00:53:00,59.0,53.8,30.01,East,93,4.0,4.0,83,0.01,CLR,,0.00,0.0,WeatherDisplay:10.37,2013-05-06 22:53:00,
2013-05-07 00:58:00,58.9,53.7,30.01,East,93,2.3,0.0,83,0.00,CLR,,0.00,0.0,WeatherDisplay:10.37,2013-05-06 22:58:00,
2013-05-07 01:03:00,58.8,53.6,30.01,East,93,2.3,2.3,83,0.00,CLR,,0.00,0.0,WeatherDisplay:10.37,2013-05-06 23:03:00,
2013-05-07 01:08:00,58.7,53.5,30.01,East,93,1.2,1.2,83,0.00,CLR,,0.00,0.0,WeatherDisplay:10.37,2013-05-06 23:08:00,
2013-05-07 01:13:00,58.7,53.5,30.01,East,93,1.2,0.0,83,0.00,CLR,,0.00,0.0,WeatherDisplay:10.37,2013-05-06 23:13:00,
2013-05-07 01:18:00,58.6,53.5,30.01,East,93,0.0,0.0,83,0.00,CLR,,0.00,0.0,WeatherDisplay:10.37,2013-05-06 23:18:00,
2013-05-07 01:23:00,58.5,53.4,30.00,East,93,1.2,1.2,83,0.00,CLR,,0.00,0.0,WeatherDisplay:10.37,2013-05-06 23:23:00,
2013-05-07 01:28:00,58.5,53.4,30.00,East,93,1.2,1.2,83,0.00,CLR,,0.00,0.0,WeatherDisplay:10.37,2013-05-06 23:28:00,
2013-05-07 01:33:00,58.5,53.4,30.00,East,93,2.3,2.3,83,0.00,CLR,,0.00,0.0,WeatherDisplay:10.37,2013-05-06 23:33:00,
2013-05-07 01:38:00,58.4,53.3,30.00,East,93,1.2,1.2,83,0.00,CLR,,0.00,0.0,WeatherDisplay:10.37,2013-05-06 23:38:00,
2013-05-07 01:43:00,58.4,53.3,30.00,East,93,2.3,2.3,83,0.00,CLR,,0.00,0.0,WeatherDisplay:10.37,2013-05-06 23:43:00,
2013-05-07 01:48:00,58.3,53.2,30.00,East,93,1.2,1.2,83,0.00,CLR,,0.00,0.0,WeatherDisplay:10.37,2013-05-06 23:48:00,
2013-05-07 01:53:00,58.3,53.2,29.99,East,93,1.2,1.2,83,0.00,CLR,,0.00,0.0,WeatherDisplay:10.37,2013-05-06 23:53:00,
2013-05-07 01:58:00,58.3,53.2,29.99,East,93,1.2,0.0,83,0.00,CLR,,0.00,0.0,WeatherDisplay:10.37,2013-05-06 23:58:00,
2013-05-07 02:03:00,58.3,53.2,29.99,East,93,1.2,1.2,83,0.00,CLR,,0.00,0.0,WeatherDisplay:10.37,2013-05-07 00:03:00,
2013-05-07 02:08:00,58.2,53.1,30.00,East,93,1.2,1.2,83,0.00,CLR,,0.00,0.0,WeatherDisplay:10.37,2013-05-07 00:08:00,
2013-05-07 02:13:00,58.1,53.0,30.00,East,93,1.2,1.2,83,0.00,CLR,,0.00,0.0,WeatherDisplay:10.37,2013-05-07 00:13:00,
2013-05-07 02:18:00,58.0,52.9,29.99,East,93,2.3,2.3,83,0.00,CLR,,0.00,0.0,WeatherDisplay:10.37,2013-05-07 00:18:00,
2013-05-07 02:23:00,57.9,52.8,29.99,East,93,2.3,2.3,83,0.00,CLR,,0.00,0.0,WeatherDisplay:10.37,2013-05-07 00:23:00,
2013-05-07 02:28:00,57.9,52.8,29.99,East,93,4.0,4.0,83,0.00,CLR,,0.00,0.0,WeatherDisplay:10.37,2013-05-07 00:28:00,
2013-05-07 02:33:00,57.8,52.7,29.99,East,93,4.6,4.6,83,0.00,CLR,,0.00,0.0,WeatherDisplay:10.37,2013-05-07 00:33:00,
2013-05-07 02:38:00,57.7,52.6,29.99,East,93,4.0,4.0,83,0.00,CLR,,0.00,0.0,WeatherDisplay:10.37,2013-05-07 00:38:00,
2013-05-07 02:43:00,57.7,52.6,29.99,East,93,3.5,3.5,83,0.00,CLR,,0.00,0.0,WeatherDisplay:10.37,2013-05-07 00:43:00,
2013-05-07 02:48:00,57.7,52.6,29.99,East,93,2.3,2.3,83,0.00,CLR,,0.00,0.0,WeatherDisplay:10.37,2013-05-07 00:48:00,
2013-05-07 02:53:00,57.6,52.5,29.99,East,93,2.0,2.0,83,0.00,CLR,,0.00,0.0,WeatherDisplay:10.37,2013-05-07 00:53:00,
2013-05-07 02:58:00,57.5,52.4,29.99,East,93,2.3,2.3,83,0.00,CLR,,0.00,0.0,WeatherDisplay:10.37,2013-05-07 00:58:00,
2013-05-07 03:03:00,57.4,52.3,29.99,East,93,2.3,2.3,83,0.00,CLR,,0.00,0.0,WeatherDisplay:10.37,2013-05-07 01:03:00,
2013-05-07 03:08:00,57.3,52.2,29.99,East,93,4.0,4.0,83,0.00,CLR,,0.00,0.0,WeatherDisplay:10.37,2013-05-07 01:08:00,
2013-05-07 03:13:00,57.1,52.0,29.99,East,93,5.0,5.0,83,0.00,CLR,,0.00,0.0,WeatherDisplay:10.37,2013-05-07 01:13:00,
2013-05-07 03:18:00,57.0,51.9,29.99,East,92,4.0,4.0,83,0.00,CLR,,0.00,0.0,WeatherDisplay:10.37,2013-05-07 01:18:00,
2013-05-07 03:23:00,56.9,51.8,29.99,East,92,5.8,5.8,83,0.00,CLR,,0.00,0.0,WeatherDisplay:10.37,2013-05-07 01:23:00,
2013-05-07 03:28:00,56.8,51.7,29.99,East,95,4.6,4.6,83,0.00,CLR,,0.00,0.0,WeatherDisplay:10.37,2013-05-07 01:28:00,
2013-05-07 03:33:00,56.8,51.7,29.99,East,95,2.3,2.3,83,0.00,CLR,,0.00,0.0,WeatherDisplay:10.37,2013-05-07 01:33:00,
2013-05-07 03:38:00,56.8,51.7,30.00,East,95,2.3,2.3,83,0.00,CLR,,0.00,0.0,WeatherDisplay:10.37,2013-05-07 01:38:00,
2013-05-07 03:43:00,56.7,51.6,30.00,East,95,4.0,4.0,83,0.00,CLR,,0.00,0.0,WeatherDisplay:10.37,2013-05-07 01:43:00,
2013-05-07 03:48:00,56.7,51.6,29.99,East,95,3.5,3.5,83,0.00,CLR,,0.00,0.0,WeatherDisplay:10.37,2013-05-07 01:48:00,
2013-05-07 03:53:00,56.6,51.5,29.99,East,95,3.5,3.5,83,0.00,CLR,,0.00,0.0,WeatherDisplay:10.37,2013-05-07 01:53:00,
2013-05-07 03:58:00,56.6,51.5,29.99,East,95,2.3,2.3,83,0.00,CLR,,0.00,0.0,WeatherDisplay:10.37,2013-05-07 01:58:00,
2013-05-07 04:03:00,56.5,51.4,29.99,East,95,2.3,2.3,83,0.00,CLR,,0.00,0.0,WeatherDisplay:10.37,2013-05-07 02:03:00,
2013-05-07 04:08:00,56.4,51.3,29.99,East,95,1.2,1.2,83,0.00,CLR,,0.00,0.0,WeatherDisplay:10.37,2013-05-07 02:08:00,
2013-05-07 04:13:00,56.3,51.2,29.98,East,95,1.0,0.0,83,0.00,CLR,,0.00,0.0,WeatherDisplay:10.37,2013-05-07 02:13:00,
2013-05-07 04:18:00,56.2,51.1,29.98,East,95,2.3,2.3,83,0.00,CLR,,0.00,0.0,WeatherDisplay:10.37,2013-05-07 02:18:00,
2013-05-07 04:23:00,56.1,51.0,29.98,East,95,2.3,2.3,83,0.00,CLR,,0.00,0.0,WeatherDisplay:10.37,2013-05-07 02:23:00,
2013-05-07 04:28:00,55.9,50.8,29.98,East,95,1.2,1.2,83,0.00,CLR,,0.00,0.0,WeatherDisplay:10.37,2013-05-07 02:28:00,
2013-05-07 04:33:00,55.9,50.8,29.98,East,95,1.2,1.2,83,0.00,CLR,,0.00,0.0,WeatherDisplay:10.37,2013-05-07 02:33:00,
2013-05-07 04:38:00,55.8,50.7,29.98,East,95,1.2,1.2,83,0.00,CLR,,0.00,0.0,WeatherDisplay:10.37,2013-05-07 02:38:00,
2013-05-07 04:43:00,55.7,50.6,29.99,East,95,1.2,1.2,83,0.00,CLR,,0.00,0.0,WeatherDisplay:10.37,2013-05-07 02:43:00,
2013-05-07 04:48:00,55.5,50.4,29.99,East,95,0.0,0.0,83,0.00,CLR,,0.00,0.0,WeatherDisplay:10.37,2013-05-07 02:48:00,
2013-05-07 04:53:00,55.3,50.2,29.99,East,95,0.0,0.0,83,0.00,CLR,,0.00,0.0,WeatherDisplay:10.37,2013-05-07 02:53:00,
2013-05-07 04:58:00,55.2,50.1,29.99,East,95,2.3,2.3,83,0.00,CLR,,0.00,0.0,WeatherDisplay:10.37,2013-05-07 02:58:00,
2013-05-07 05:03:00,55.1,50.0,29.99,East,95,2.3,0.0,83,0.00,OVC,,0.00,0.0,WeatherDisplay:10.37,2013-05-07 03:03:00,
2013-05-07 05:08:00,55.1,50.0,29.99,East,95,2.3,2.3,83,0.00,OVC,,0.00,0.0,WeatherDisplay:10.37,2013-05-07 03:08:00,
2013-05-07 05:13:00,55.2,50.1,29.99,East,95,3.5,3.5,83,0.00,OVC,,0.00,0.0,WeatherDisplay:10.37,2013-05-07 03:13:00,
2013-05-07 05:18:00,55.2,50.1,29.99,East,95,2.3,2.3,83,0.00,OVC,,0.00,0.0,WeatherDisplay:10.37,2013-05-07 03:18:00,
2013-05-07 05:23:00,55.3,50.2,29.99,East,95,3.5,3.5,83,0.00,OVC,,0.00,0.0,WeatherDisplay:10.37,2013-05-07 03:23:00,
2013-05-07 05:28:00,55.4,50.3,29.99,East,95,3.5,3.5,83,0.00,OVC,,0.00,0.0,WeatherDisplay:10.37,2013-05-07 03:28:00,
2013-05-07 05:33:00,55.6,50.5,29.99,East,95,2.3,2.3,83,0.00,OVC,,0.00,0.0,WeatherDisplay:10.37,2013-05-07 03:33:00,
2013-05-07 05:38:00,55.6,50.5,29.99,East,95,4.0,4.0,83,0.00,OVC,,0.00,0.0,WeatherDisplay:10.37,2013-05-07 03:38:00,
2013-05-07 05:43:00,55.8,50.7,29.99,East,95,4.0,4.0,83,0.00,OVC,,0.00,0.0,WeatherDisplay:10.37,2013-05-07 03:43:00,
2013-05-07 05:48:00,55.8,50.7,29.99,ESE,103,7.0,7.0,83,0.00,OVC,,0.00,0.0,WeatherDisplay:10.37,2013-05-07 03:48:00,
2013-05-07 05:53:00,56.1,51.0,30.00,East,86,5.0,5.0,83,0.00,OVC,,0.00,0.0,WeatherDisplay:10.37,2013-05-07 03:53:00,
2013-05-07 05:58:00,56.3,51.2,30.00,ESE,103,4.6,4.6,83,0.00,OVC,,0.00,0.0,WeatherDisplay:10.37,2013-05-07 03:58:00,
2013-05-07 06:01:00,56.3,51.2,30.00,ESE,102,3.5,3.5,83,0.00,OVC,,0.00,0.0,WeatherDisplay:10.37,2013-05-07 04:01:00,
2013-05-07 06:02:00,56.4,51.3,30.00,ESE,102,2.3,2.3,83,0.00,OVC,,0.00,0.0,WeatherDisplay:10.37,2013-05-07 04:02:00,
2013-05-07 06:05:00,56.4,51.3,30.00,ESE,105,4.6,4.6,83,0.00,OVC,,0.00,0.0,WeatherDisplay:10.37,2013-05-07 04:05:00,
2013-05-07 06:06:00,56.4,51.3,30.00,ESE,105,4.6,4.6,83,0.00,OVC,,0.00,5.0,WeatherDisplay:10.37,2013-05-07 04:06:00,
2013-05-07 06:11:00,56.4,51.3,30.00,ESE,105,4.0,4.0,83,0.02,RA,,0.02,9.0,WeatherDisplay:10.37,2013-05-07 04:11:00,
2013-05-07 06:13:00,56.4,51.3,29.99,ESE,105,4.0,4.0,83,0.02,RA,,0.02,11.0,WeatherDisplay:10.37,2013-05-07 04:13:00,
2013-05-07 06:18:00,56.4,51.3,29.99,ESE,104,2.3,2.3,83,0.02,RA,,0.02,11.0,WeatherDisplay:10.37,2013-05-07 04:18:00,
2013-05-07 06:23:00,56.4,51.3,29.99,ESE,104,2.3,2.3,83,0.02,OVC,,0.02,9.0,WeatherDisplay:10.37,2013-05-07 04:23:00,
2013-05-07 06:28:00,56.4,51.3,29.99,ESE,104,4.0,4.0,83,0.02,RA,,0.02,12.0,WeatherDisplay:10.37,2013-05-07 04:28:00,
2013-05-07 06:33:00,56.4,51.3,29.99,ESE,104,3.5,3.5,83,0.02,RA,,0.02,11.0,WeatherDisplay:10.37,2013-05-07 04:33:00,
2013-05-07 06:38:00,56.3,51.2,29.99,ESE,103,2.3,2.3,83,0.02,OVC,,0.02,14.0,WeatherDisplay:10.37,2013-05-07 04:38:00,
2013-05-07 06:43:00,56.3,51.2,29.99,ESE,103,2.3,2.3,83,0.02,OVC,,0.02,21.0,WeatherDisplay:10.37,2013-05-07 04:43:00,
2013-05-07 06:48:00,56.3,51.2,29.99,ESE,103,6.0,6.0,83,0.02,OVC,,0.02,14.0,WeatherDisplay:10.37,2013-05-07 04:48:00,
2013-05-07 06:53:00,56.3,51.2,30.00,ESE,103,2.3,2.3,83,0.02,OVC,,0.02,9.0,WeatherDisplay:10.37,2013-05-07 04:53:00,
2013-05-07 06:58:00,56.3,51.2,30.00,ESE,103,4.0,4.0,83,0.02,OVC,,0.02,12.0,WeatherDisplay:10.37,2013-05-07 04:58:00,
2013-05-07 07:03:00,56.4,51.3,29.99,ESE,103,4.0,4.0,83,0.02,OVC,,0.02,11.0,WeatherDisplay:10.37,2013-05-07 05:03:00,
2013-05-07 07:08:00,56.3,51.2,30.00,ESE,103,4.0,4.0,83,0.02,RA,,0.04,11.0,WeatherDisplay:10.37,2013-05-07 05:08:00,
2013-05-07 07:13:00,56.4,51.3,30.00,ESE,103,4.6,4.6,83,0.03,RA,,0.06,23.0,WeatherDisplay:10.37,2013-05-07 05:13:00,
2013-05-07 07:18:00,56.5,51.4,30.00,East,101,4.0,4.0,83,0.05,RA,,0.06,30.0,WeatherDisplay:10.37,2013-05-07 05:18:00,
2013-05-07 07:23:00,56.5,51.4,29.99,East,80,4.6,4.6,83,0.05,RA,,0.06,26.0,WeatherDisplay:10.37,2013-05-07 05:23:00,
2013-05-07 07:28:00,56.6,51.5,30.00,ENE,76,5.0,5.0,83,0.04,OVC,,0.06,25.0,WeatherDisplay:10.37,2013-05-07 05:28:00,
2013-05-07 07:33:00,56.6,51.5,29.99,East,83,5.0,5.0,83,0.04,OVC,,0.06,26.0,WeatherDisplay:10.37,2013-05-07 05:33:00,
2013-05-07 07:38:00,56.7,51.6,29.99,East,83,3.5,3.5,83,0.04,OVC,,0.06,28.0,WeatherDisplay:10.37,2013-05-07 05:38:00,
2013-05-07 07:43:00,56.7,51.6,29.99,East,80,3.5,3.5,83,0.05,RA,,0.07,16.0,WeatherDisplay:10.37,2013-05-07 05:43:00,
2013-05-07 07:48:00,56.7,51.6,29.99,East,92,5.0,5.0,83,0.05,RA,,0.07,9.0,WeatherDisplay:10.37,2013-05-07 05:48:00,
2013-05-07 07:53:00,56.7,51.6,30.00,ESE,117,5.0,5.0,83,0.05,OVC,,0.08,5.0,WeatherDisplay:10.37,2013-05-07 05:53:00,
2013-05-07 07:58:00,56.7,51.6,30.00,East,92,6.0,6.0,83,0.08,RA,,0.11,11.0,WeatherDisplay:10.37,2013-05-07 05:58:00,
2013-05-07 08:03:00,56.7,51.6,30.00,ENE,72,5.8,5.8,83,0.11,RA,,0.13,14.0,WeatherDisplay:10.37,2013-05-07 06:03:00,
2013-05-07 08:08:00,56.8,51.7,30.00,East,82,5.8,5.8,83,0.10,RA,,0.13,42.0,WeatherDisplay:10.37,2013-05-07 06:08:00,
2013-05-07 08:13:00,56.8,51.7,30.00,ENE,76,5.0,5.0,83,0.09,RA,,0.14,81.0,WeatherDisplay:10.37,2013-05-07 06:13:00,
2013-05-07 08:18:00,57.0,51.9,30.00,ENE,62,5.8,5.8,83,0.08,RA,,0.14,84.0,WeatherDisplay:10.37,2013-05-07 06:18:00,
2013-05-07 08:23:00,57.1,52.0,30.00,East,80,3.5,3.5,83,0.08,OVC,,0.14,95.0,WeatherDisplay:10.37,2013-05-07 06:23:00,
2013-05-07 08:28:00,57.2,52.1,30.00,ENE,67,4.6,4.6,83,0.08,OVC,,0.14,88.0,WeatherDisplay:10.37,2013-05-07 06:28:00,
2013-05-07 08:33:00,57.4,52.3,30.00,East,83,5.8,5.8,83,0.08,OVC,,0.14,167.0,WeatherDisplay:10.37,2013-05-07 06:33:00,
2013-05-07 08:38:00,57.7,52.6,30.00,East,83,3.5,3.5,83,0.08,BKN,,0.14,221.0,WeatherDisplay:10.37,2013-05-07 06:38:00,
2013-05-07 08:43:00,58.0,52.9,30.00,ENE,73,6.9,6.9,83,0.07,BKN,,0.14,483.0,WeatherDisplay:10.37,2013-05-07 06:43:00,
2013-05-07 08:48:00,58.6,53.5,29.99,NE,51,6.0,6.0,83,0.07,FEW,,0.14,390.0,WeatherDisplay:10.37,2013-05-07 06:48:00,
2013-05-07 08:53:00,58.9,54.1,29.99,East,88,8.1,8.1,84,0.07,BKN,,0.14,267.0,WeatherDisplay:10.37,2013-05-07 06:53:00,
2013-05-07 08:58:00,59.2,54.4,29.99,ENE,59,8.0,8.0,84,0.04,SCT,,0.14,325.0,WeatherDisplay:10.37,2013-05-07 06:58:00,
2013-05-07 09:03:00,59.3,54.1,29.99,ENE,71,7.0,7.0,83,0.01,BKN,,0.14,320.0,WeatherDisplay:10.37,2013-05-07 07:03:00,
2013-05-07 09:08:00,59.4,54.2,29.99,East,82,5.0,5.0,83,0.01,OVC,,0.14,229.0,WeatherDisplay:10.37,2013-05-07 07:08:00,
2013-05-07 09:13:00,59.5,54.3,29.99,East,80,4.6,4.6,83,0.00,OVC,,0.14,209.0,WeatherDisplay:10.37,2013-05-07 07:13:00,
2013-05-07 09:18:00,59.6,54.4,29.99,East,89,6.9,6.9,83,0.00,OVC,,0.14,200.0,WeatherDisplay:10.37,2013-05-07 07:18:00,
2013-05-07 09:23:00,59.8,54.6,29.99,East,94,4.6,4.6,83,0.00,BKN,,0.14,292.0,WeatherDisplay:10.37,2013-05-07 07:23:00,
2013-05-07 09:28:00,60.2,55.0,29.99,ESE,117,7.0,7.0,83,0.00,SCT,,0.14,408.0,WeatherDisplay:10.37,2013-05-07 07:28:00,
2013-05-07 09:33:00,60.8,55.6,29.99,ENE,78,5.0,5.0,83,0.00,CLR,,0.14,710.0,WeatherDisplay:10.37,2013-05-07 07:33:00,
2013-05-07 09:38:00,61.7,56.5,29.99,East,91,6.9,6.9,83,0.00,CLR,,0.14,703.0,WeatherDisplay:10.37,2013-05-07 07:38:00,
2013-05-07 09:43:00,62.5,57.3,29.99,ENE,65,11.5,11.5,83,0.00,FEW,,0.14,649.0,WeatherDisplay:10.37,2013-05-07 07:43:00,
2013-05-07 09:48:00,62.6,57.4,30.00,ENE,67,5.0,5.0,83,0.00,BKN,,0.14,302.0,WeatherDisplay:10.37,2013-05-07 07:48:00,
2013-05-07 09:53:00,62.8,57.6,30.00,East,88,8.1,8.1,83,0.00,BKN,,0.14,320.0,WeatherDisplay:10.37,2013-05-07 07:53:00,
2013-05-07 09:58:00,63.1,57.9,29.99,ESE,115,6.0,6.0,83,0.00,BKN,,0.14,345.0,WeatherDisplay:10.37,2013-05-07 07:58:00,
2013-05-07 10:03:00,63.2,57.9,29.99,ENE,72,11.5,11.5,83,0.00,BKN,,0.14,309.0,WeatherDisplay:10.37,2013-05-07 08:03:00,
2013-05-07 10:08:00,63.3,58.0,29.99,East,80,6.9,6.9,83,0.00,BKN,,0.14,278.0,WeatherDisplay:10.37,2013-05-07 08:08:00,
2013-05-07 10:13:00,63.5,58.2,29.99,ENE,63,4.0,4.0,83,0.00,BKN,,0.14,343.0,WeatherDisplay:10.37,2013-05-07 08:13:00,
2013-05-07 10:18:00,63.9,58.6,29.99,East,92,8.0,8.0,83,0.00,BKN,,0.14,364.0,WeatherDisplay:10.37,2013-05-07 08:18:00,
2013-05-07 10:23:00,64.1,58.8,29.99,East,92,8.1,8.1,83,0.00,BKN,,0.14,503.0,WeatherDisplay:10.37,2013-05-07 08:23:00,
2013-05-07 10:28:00,64.4,59.1,29.99,ESE,120,8.1,8.1,83,0.00,SCT,,0.14,601.0,WeatherDisplay:10.37,2013-05-07 08:28:00,
2013-05-07 10:33:00,64.9,59.6,29.99,East,88,4.6,4.6,83,0.00,SCT,,0.14,432.0,WeatherDisplay:10.37,2013-05-07 08:33:00,
2013-05-07 10:38:00,65.1,59.8,29.99,NE,47,10.4,10.4,83,0.00,BKN,,0.14,392.0,WeatherDisplay:10.37,2013-05-07 08:38:00,
2013-05-07 10:43:00,65.0,59.7,29.99,East,93,8.0,8.0,83,0.00,SCT,,0.14,543.0,WeatherDisplay:10.37,2013-05-07 08:43:00,
2013-05-07 10:48:00,65.5,59.9,29.99,ENE,70,10.4,10.4,82,0.00,BKN,,0.14,411.0,WeatherDisplay:10.37,2013-05-07 08:48:00,
2013-05-07 10:53:00,65.5,59.9,29.99,NE,50,10.4,10.4,82,0.00,BKN,,0.14,397.0,WeatherDisplay:10.37,2013-05-07 08:53:00,
2013-05-07 10:58:00,65.2,59.6,29.99,East,96,11.5,11.5,82,0.00,OVC,,0.14,309.0,WeatherDisplay:10.37,2013-05-07 08:58:00,
2013-05-07 11:03:00,65.0,59.4,30.00,ENE,74,11.5,11.5,82,0.00,OVC,,0.14,294.0,WeatherDisplay:10.37,2013-05-07 09:03:00,
2013-05-07 11:08:00,64.9,59.3,29.99,ENE,75,11.5,11.5,82,0.00,BKN,,0.14,355.0,WeatherDisplay:10.37,2013-05-07 09:08:00,
2013-05-07 11:13:00,65.1,59.5,29.99,NE,49,10.0,10.0,82,0.00,OVC,,0.14,339.0,WeatherDisplay:10.37,2013-05-07 09:13:00,
2013-05-07 11:18:00,65.5,59.9,29.99,ENE,64,8.1,8.1,82,0.00,BKN,,0.14,1009.0,WeatherDisplay:10.37,2013-05-07 09:18:00,
2013-05-07 11:23:00,67.4,61.7,29.99,East,89,13.0,13.0,82,0.00,CLR,,0.14,912.0,WeatherDisplay:10.37,2013-05-07 09:23:00,
2013-05-07 11:28:00,67.7,61.0,29.99,East,92,11.5,11.5,79,0.00,BKN,,0.14,471.0,WeatherDisplay:10.37,2013-05-07 09:28:00,
2013-05-07 11:33:00,67.4,61.4,29.99,East,82,8.0,8.0,81,0.00,BKN,,0.14,383.0,WeatherDisplay:10.37,2013-05-07 09:33:00,
2013-05-07 11:38:00,67.5,61.1,29.99,ENE,67,8.1,8.1,80,0.00,BKN,,0.14,450.0,WeatherDisplay:10.37,2013-05-07 09:38:00,
2013-05-07 11:43:00,67.7,61.3,29.99,ENE,72,8.1,8.1,80,0.00,BKN,,0.14,374.0,WeatherDisplay:10.37,2013-05-07 09:43:00,
2013-05-07 11:48:00,67.9,61.1,29.99,ENE,65,12.7,12.7,79,0.00,BKN,,0.14,462.0,WeatherDisplay:10.37,2013-05-07 09:48:00,
2013-05-07 11:53:00,67.5,60.8,29.99,East,94,12.0,12.0,79,0.00,BKN,,0.14,425.0,WeatherDisplay:10.37,2013-05-07 09:53:00,
2013-05-07 11:58:00,67.4,61.0,29.99,East,83,7.0,7.0,80,0.00,OVC,,0.14,301.0,WeatherDisplay:10.37,2013-05-07 09:58:00,
2013-05-07 12:03:00,67.3,60.9,29.99,ENE,74,12.0,12.0,80,0.00,BKN,,0.14,429.0,WeatherDisplay:10.37,2013-05-07 10:03:00,
2013-05-07 12:08:00,67.4,61.0,29.99,ESE,109,11.5,11.5,80,0.00,BKN,,0.14,378.0,WeatherDisplay:10.37,2013-05-07 10:08:00,
2013-05-07 12:13:00,67.9,61.1,29.99,East,97,11.5,11.5,79,0.00,BKN,,0.14,475.0,WeatherDisplay:10.37,2013-05-07 10:13:00,
2013-05-07 12:18:00,68.1,61.3,29.99,ENE,73,10.0,10.0,79,0.00,BKN,,0.14,462.0,WeatherDisplay:10.37,2013-05-07 10:18:00,
2013-05-07 12:23:00,68.2,61.4,29.99,SE,131,12.7,12.7,79,0.00,OVC,,0.14,279.0,WeatherDisplay:10.37,2013-05-07 10:23:00,
2013-05-07 12:28:00,67.7,61.0,29.99,ESE,103,12.7,12.7,79,0.00,OVC,,0.14,306.0,WeatherDisplay:10.37,2013-05-07 10:28:00,
2013-05-07 12:33:00,67.5,60.8,29.98,ESE,108,16.1,16.1,79,0.00,OVC,,0.14,214.0,WeatherDisplay:10.37,2013-05-07 10:33:00,
2013-05-07 12:38:00,66.9,60.2,29.98,ESE,111,13.8,13.8,79,0.00,OVC,,0.14,185.0,WeatherDisplay:10.37,2013-05-07 10:38:00,
2013-05-07 12:43:00,66.7,60.3,29.98,East,80,9.0,9.0,80,0.00,OVC,,0.14,153.0,WeatherDisplay:10.37,2013-05-07 10:43:00,
2013-05-07 12:48:00,66.4,60.4,29.98,East,100,9.0,9.0,81,0.00,OVC,,0.14,137.0,WeatherDisplay:10.37,2013-05-07 10:48:00,
2013-05-07 12:53:00,66.4,60.4,29.98,SE,130,11.5,11.5,81,0.00,OVC,,0.14,311.0,WeatherDisplay:10.37,2013-05-07 10:53:00,
2013-05-07 12:58:00,67.0,61.0,29.98,ESE,108,11.0,11.0,81,0.00,FEW,,0.14,837.0,WeatherDisplay:10.37,2013-05-07 10:58:00,
2013-05-07 13:03:00,69.1,61.9,29.98,ESE,119,11.5,11.5,78,0.00,FEW,,0.14,849.0,WeatherDisplay:10.37,2013-05-07 11:03:00,
2013-05-07 13:08:00,70.0,62.1,29.98,ENE,78,12.0,12.0,76,0.00,FEW,,0.14,895.0,WeatherDisplay:10.37,2013-05-07 11:08:00,
2013-05-07 13:13:00,70.1,61.8,29.98,East,96,11.5,11.5,75,0.00,BKN,,0.14,448.0,WeatherDisplay:10.37,2013-05-07 11:13:00,
2013-05-07 13:18:00,70.2,61.9,29.98,SSE,155,15.0,15.0,75,0.00,BKN,,0.14,884.0,WeatherDisplay:10.37,2013-05-07 11:18:00,
2013-05-07 13:23:00,70.6,62.7,29.98,ESE,113,16.0,16.0,76,0.00,BKN,,0.14,369.0,WeatherDisplay:10.37,2013-05-07 11:23:00,
2013-05-07 13:28:00,70.0,61.7,29.98,East,85,12.7,12.7,75,0.00,BKN,,0.14,461.0,WeatherDisplay:10.37,2013-05-07 11:28:00,
2013-05-07 13:33:00,70.1,61.8,29.98,ESE,121,12.0,12.0,75,0.00,OVC,,0.14,367.0,WeatherDisplay:10.37,2013-05-07 11:33:00,
2013-05-07 13:38:00,69.5,61.6,29.98,SE,126,13.8,13.8,76,0.00,BKN,,0.14,411.0,WeatherDisplay:10.37,2013-05-07 11:38:00,
2013-05-07 13:43:00,69.8,61.9,29.98,ENE,74,13.8,13.8,76,0.00,BKN,,0.14,529.0,WeatherDisplay:10.37,2013-05-07 11:43:00,
2013-05-07 13:48:00,69.8,61.9,29.97,ENE,74,15.0,15.0,76,0.00,BKN,,0.14,529.0,WeatherDisplay:10.37,2013-05-07 11:48:00,
2013-05-07 13:53:00,69.4,61.5,29.97,NE,55,11.5,11.5,76,0.00,OVC,,0.14,339.0,WeatherDisplay:10.37,2013-05-07 11:53:00,
2013-05-07 13:58:00,69.7,61.8,29.97,East,84,18.4,18.4,76,0.00,BKN,,0.14,418.0,WeatherDisplay:10.37,2013-05-07 11:58:00,
2013-05-07 14:03:00,70.5,62.2,29.97,ESE,113,11.5,11.5,75,0.00,FEW,,0.14,872.0,WeatherDisplay:10.37,2013-05-07 12:03:00,
2013-05-07 14:09:00,70.9,62.2,29.97,East,82,14.0,14.0,74,0.00,OVC,,0.14,308.0,WeatherDisplay:10.37,2013-05-07 12:09:00,
2013-05-07 14:14:00,70.6,61.9,29.97,East,95,14.0,14.0,74,0.00,OVC,,0.14,396.0,WeatherDisplay:10.37,2013-05-07 12:14:00,
2013-05-07 14:19:00,71.1,62.4,29.97,SE,138,12.7,12.7,74,0.00,CLR,,0.14,958.0,WeatherDisplay:10.37,2013-05-07 12:19:00,
2013-05-07 14:24:00,71.9,62.0,29.97,ESE,107,18.4,18.4,71,0.00,CLR,,0.14,705.0,WeatherDisplay:10.37,2013-05-07 12:24:00,
2013-05-07 14:29:00,71.9,62.0,29.96,East,101,12.7,12.7,71,0.00,CLR,,0.14,1000.0,WeatherDisplay:10.37,2013-05-07 12:29:00,
2013-05-07 14:34:00,71.5,62.0,29.96,ESE,107,13.0,13.0,72,0.00,CLR,,0.14,431.0,WeatherDisplay:10.37,2013-05-07 12:34:00,
2013-05-07 14:39:00,71.4,62.3,29.96,East,80,15.0,15.0,73,0.00,BKN,,0.14,417.0,WeatherDisplay:10.37,2013-05-07 12:39:00,
2013-05-07 14:45:00,70.7,62.0,29.96,NE,56,15.0,15.0,74,0.00,BKN,,0.14,459.0,WeatherDisplay:10.37,2013-05-07 12:45:00,
2013-05-07 14:50:00,70.6,61.9,29.96,ESE,102,12.7,12.7,74,0.00,BKN,,0.14,420.0,WeatherDisplay:10.37,2013-05-07 12:50:00,
2013-05-07 14:55:00,70.3,61.6,29.96,East,88,15.0,15.0,74,0.00,BKN,,0.14,469.0,WeatherDisplay:10.37,2013-05-07 12:55:00,
2013-05-07 15:01:00,70.8,62.5,29.96,ESE,108,11.5,11.5,75,0.00,CLR,,0.14,856.0,WeatherDisplay:10.37,2013-05-07 13:01:00,
2013-05-07 15:06:00,71.4,62.3,29.96,ESE,120,17.3,17.3,73,0.00,CLR,,0.14,953.0,WeatherDisplay:10.37,2013-05-07 13:06:00,
2013-05-07 15:11:00,71.2,61.7,29.96,East,80,15.0,15.0,72,0.00,BKN,,0.14,425.0,WeatherDisplay:10.37,2013-05-07 13:11:00,
2013-05-07 15:16:00,71.0,62.7,29.95,ESE,115,9.2,9.2,75,0.00,CLR,,0.14,439.0,WeatherDisplay:10.37,2013-05-07 13:16:00,
2013-05-07 15:21:00,71.0,61.5,29.95,East,89,12.7,12.7,72,0.00,BKN,,0.14,309.0,WeatherDisplay:10.37,2013-05-07 13:21:00,
2013-05-07 15:26:00,70.3,61.6,29.96,ESE,117,12.7,12.7,74,0.00,OVC,,0.14,311.0,WeatherDisplay:10.37,2013-05-07 13:26:00,
2013-05-07 15:31:00,70.4,61.7,29.96,ESE,115,11.5,11.5,74,0.00,FEW,,0.14,747.0,WeatherDisplay:10.37,2013-05-07 13:31:00,
2013-05-07 15:36:00,71.1,61.6,29.95,ENE,73,11.5,11.5,72,0.00,FEW,,0.14,696.0,WeatherDisplay:10.37,2013-05-07 13:36:00,
2013-05-07 15:41:00,71.2,61.7,29.95,East,94,11.5,11.5,72,0.00,FEW,,0.14,721.0,WeatherDisplay:10.37,2013-05-07 13:41:00,
2013-05-07 15:46:00,71.3,61.4,29.95,East,98,11.5,11.5,71,0.00,OVC,,0.14,209.0,WeatherDisplay:10.37,2013-05-07 13:46:00,
2013-05-07 15:51:00,70.7,61.2,29.94,ESE,107,10.4,10.4,72,0.00,FEW,,0.14,246.0,WeatherDisplay:10.37,2013-05-07 13:51:00,
2013-05-07 15:56:00,71.0,61.1,29.95,East,90,16.1,16.1,71,0.00,FEW,,0.14,633.0,WeatherDisplay:10.37,2013-05-07 13:56:00,
2013-05-07 16:01:00,71.5,61.6,29.94,East,82,13.8,13.8,71,0.00,FEW,,0.14,578.0,WeatherDisplay:10.37,2013-05-07 14:01:00,
2013-05-07 16:06:00,71.8,61.5,29.94,ENE,73,16.1,16.1,70,0.00,FEW,,0.14,568.0,WeatherDisplay:10.37,2013-05-07 14:06:00,
2013-05-07 16:11:00,72.1,62.2,29.94,East,83,10.4,10.4,71,0.00,FEW,,0.14,557.0,WeatherDisplay:10.37,2013-05-07 14:11:00,
2013-05-07 16:16:00,72.0,61.3,29.94,ENE,60,18.4,18.4,69,0.00,OVC,,0.14,202.0,WeatherDisplay:10.37,2013-05-07 14:16:00,
2013-05-07 16:21:00,71.7,61.4,29.94,ENE,78,15.0,15.0,70,0.00,FEW,,0.14,561.0,WeatherDisplay:10.37,2013-05-07 14:21:00,
2013-05-07 16:26:00,72.1,61.8,29.94,ESE,107,16.1,16.1,70,0.00,FEW,,0.14,524.0,WeatherDisplay:10.37,2013-05-07 14:26:00,
2013-05-07 16:31:00,72.5,62.6,29.93,ENE,63,7.0,7.0,71,0.00,FEW,,0.14,534.0,WeatherDisplay:10.37,2013-05-07 14:31:00,
2013-05-07 16:36:00,72.5,60.5,29.93,East,99,15.0,15.0,66,0.00,FEW,,0.14,547.0,WeatherDisplay:10.37,2013-05-07 14:36:00,
2013-05-07 16:41:00,71.9,61.2,29.93,ESE,112,11.5,11.5,69,0.00,OVC,,0.14,213.0,WeatherDisplay:10.37,2013-05-07 14:41:00,
2013-05-07 16:46:00,71.4,60.7,29.93,East,92,17.3,17.3,69,0.00,OVC,,0.14,221.0,WeatherDisplay:10.37,2013-05-07 14:46:00,
2013-05-07 16:51:00,70.9,60.6,29.93,ESE,105,15.0,15.0,70,0.00,BKN,,0.14,309.0,WeatherDisplay:10.37,2013-05-07 14:51:00,
2013-05-07 16:56:00,70.8,60.9,29.93,SE,127,11.5,11.5,71,0.00,SCT,,0.14,425.0,WeatherDisplay:10.37,2013-05-07 14:56:00,
2013-05-07 17:01:00,71.4,61.1,29.93,East,90,13.0,13.0,70,0.00,FEW,,0.14,450.0,WeatherDisplay:10.37,2013-05-07 15:01:00,
2013-05-07 17:06:00,71.7,60.6,29.93,ENE,62,16.1,16.1,68,0.00,FEW,,0.14,439.0,WeatherDisplay:10.37,2013-05-07 15:06:00,
2013-05-07 17:11:00,71.7,60.6,29.93,ESE,108,12.0,12.0,68,0.00,OVC,,0.14,192.0,WeatherDisplay:10.37,2013-05-07 15:11:00,
2013-05-07 17:16:00,71.8,60.2,29.92,ENE,66,15.0,15.0,67,0.00,FEW,,0.14,427.0,WeatherDisplay:10.37,2013-05-07 15:16:00,
2013-05-07 17:21:00,71.8,60.7,29.93,ESE,117,19.6,19.6,68,0.00,SCT,,0.14,387.0,WeatherDisplay:10.37,2013-05-07 15:21:00,
2013-05-07 17:26:00,71.5,60.4,29.92,East,94,12.7,12.7,68,0.00,SCT,,0.14,302.0,WeatherDisplay:10.37,2013-05-07 15:26:00,
2013-05-07 17:31:00,71.6,60.9,29.92,ESE,109,11.5,11.5,69,0.00,CLR,,0.14,452.0,WeatherDisplay:10.37,2013-05-07 15:31:00,
2013-05-07 17:36:00,72.2,61.5,29.92,ESE,113,13.0,13.0,69,0.00,FEW,,0.14,403.0,WeatherDisplay:10.37,2013-05-07 15:36:00,
2013-05-07 17:41:00,72.3,62.0,29.92,ESE,113,7.0,7.0,70,0.00,SCT,,0.14,137.0,WeatherDisplay:10.37,2013-05-07 15:41:00,
2013-05-07 17:46:00,71.4,60.7,29.92,ENE,75,13.0,13.0,69,0.00,BKN,,0.14,195.0,WeatherDisplay:10.37,2013-05-07 15:46:00,
2013-05-07 17:51:00,71.2,60.9,29.92,East,81,11.5,11.5,70,0.00,FEW,,0.14,366.0,WeatherDisplay:10.37,2013-05-07 15:51:00,
2013-05-07 17:56:00,71.2,60.9,29.92,ENE,67,13.0,13.0,70,0.00,OVC,,0.14,114.0,WeatherDisplay:10.37,2013-05-07 15:56:00,
2013-05-07 18:01:00,70.5,60.2,29.92,East,92,15.0,15.0,70,0.00,OVC,,0.14,83.0,WeatherDisplay:10.37,2013-05-07 16:01:00,
2013-05-07 18:06:00,69.9,60.1,29.92,East,86,9.2,9.2,71,0.00,OVC,,0.14,53.0,WeatherDisplay:10.37,2013-05-07 16:06:00,
2013-05-07 18:11:00,69.3,60.3,29.92,East,92,11.5,11.5,73,0.00,OVC,,0.14,56.0,WeatherDisplay:10.37,2013-05-07 16:11:00,
2013-05-07 18:16:00,68.8,60.2,29.92,East,88,13.8,13.8,74,0.00,OVC,,0.14,58.0,WeatherDisplay:10.37,2013-05-07 16:16:00,
2013-05-07 18:21:00,68.6,60.0,29.92,ESE,118,12.7,12.7,74,0.00,OVC,,0.14,84.0,WeatherDisplay:10.37,2013-05-07 16:21:00,
2013-05-07 18:26:00,68.6,60.0,29.92,East,82,11.5,11.5,74,0.00,OVC,,0.14,77.0,WeatherDisplay:10.37,2013-05-07 16:26:00,
2013-05-07 18:31:00,68.6,60.4,29.92,ESE,105,11.5,11.5,75,0.00,OVC,,0.14,58.0,WeatherDisplay:10.37,2013-05-07 16:31:00,
2013-05-07 18:36:00,68.7,60.1,29.92,ENE,76,12.0,12.0,74,0.00,OVC,,0.14,21.0,WeatherDisplay:10.37,2013-05-07 16:36:00,
2013-05-07 18:41:00,68.6,60.0,29.92,ENE,77,12.0,12.0,74,0.00,OVC,,0.14,18.0,WeatherDisplay:10.37,2013-05-07 16:41:00,
2013-05-07 18:46:00,68.4,59.8,29.92,ENE,78,13.0,13.0,74,0.00,OVC,,0.14,16.0,WeatherDisplay:10.37,2013-05-07 16:46:00,
2013-05-07 18:51:00,68.1,59.5,29.92,East,89,8.1,8.1,74,0.00,OVC,,0.14,16.0,WeatherDisplay:10.37,2013-05-07 16:51:00,
2013-05-07 18:56:00,67.8,59.2,29.92,ENE,60,12.0,12.0,74,0.00,OVC,,0.14,18.0,WeatherDisplay:10.37,2013-05-07 16:56:00,
2013-05-07 19:01:00,67.6,59.4,29.92,East,91,11.5,11.5,75,0.00,OVC,,0.14,18.0,WeatherDisplay:10.37,2013-05-07 17:01:00,
2013-05-07 19:06:00,67.4,59.2,29.92,NE,55,14.0,14.0,75,0.00,OVC,,0.14,19.0,WeatherDisplay:10.37,2013-05-07 17:06:00,
2013-05-07 19:11:00,67.2,59.0,29.92,East,82,11.0,11.0,75,0.00,OVC,,0.14,19.0,WeatherDisplay:10.37,2013-05-07 17:11:00,
2013-05-07 19:16:00,67.1,59.3,29.93,ESE,123,11.0,11.0,76,0.00,OVC,,0.14,21.0,WeatherDisplay:10.37,2013-05-07 17:16:00,
2013-05-07 19:21:00,66.9,59.1,29.93,East,90,8.0,8.0,76,0.00,OVC,,0.14,18.0,WeatherDisplay:10.37,2013-05-07 17:21:00,
2013-05-07 19:26:00,66.9,59.1,29.92,ESE,113,6.9,6.9,76,0.00,OVC,,0.14,19.0,WeatherDisplay:10.37,2013-05-07 17:26:00,
2013-05-07 19:31:00,66.9,59.1,29.92,ESE,117,10.4,10.4,76,0.00,OVC,,0.14,23.0,WeatherDisplay:10.37,2013-05-07 17:31:00,
2013-05-07 19:36:00,66.9,59.1,29.92,ESE,108,8.1,8.1,76,0.00,OVC,,0.14,26.0,WeatherDisplay:10.37,2013-05-07 17:36:00,
2013-05-07 19:41:00,66.9,59.1,29.92,East,101,8.1,8.1,76,0.00,OVC,,0.14,28.0,WeatherDisplay:10.37,2013-05-07 17:41:00,
2013-05-07 19:46:00,66.8,59.0,29.92,ENE,67,8.1,8.1,76,0.00,OVC,,0.14,28.0,WeatherDisplay:10.37,2013-05-07 17:46:00,
2013-05-07 19:51:00,66.7,59.3,29.92,ENE,65,6.0,6.0,77,0.00,OVC,,0.14,25.0,WeatherDisplay:10.37,2013-05-07 17:51:00,
2013-05-07 19:56:00,66.5,59.1,29.92,East,101,6.9,6.9,77,0.00,OVC,,0.14,21.0,WeatherDisplay:10.37,2013-05-07 17:56:00,
2013-05-07 20:01:00,66.4,59.0,29.92,ENE,78,6.9,6.9,77,0.00,OVC,,0.14,16.0,WeatherDisplay:10.37,2013-05-07 18:01:00,
2013-05-07 20:06:00,66.4,58.6,29.92,ESE,105,8.1,8.1,76,0.00,OVC,,0.14,11.0,WeatherDisplay:10.37,2013-05-07 18:06:00,
2013-05-07 20:11:00,66.3,58.5,29.93,ESE,103,9.2,9.2,76,0.00,OVC,,0.14,7.0,WeatherDisplay:10.37,2013-05-07 18:11:00,
2013-05-07 20:16:00,66.3,58.5,29.93,East,87,10.4,10.4,76,0.00,OVC,,0.14,5.0,WeatherDisplay:10.37,2013-05-07 18:16:00,
2013-05-07 20:21:00,66.3,58.5,29.93,SE,138,11.5,11.5,76,0.00,OVC,,0.14,0.0,WeatherDisplay:10.37,2013-05-07 18:21:00,
2013-05-07 20:26:00,66.3,58.1,29.93,ESE,119,9.2,9.2,75,0.00,OVC,,0.14,0.0,WeatherDisplay:10.37,2013-05-07 18:26:00,
2013-05-07 20:31:00,66.3,58.1,29.93,SE,124,9.2,9.2,75,0.00,OVC,,0.14,0.0,WeatherDisplay:10.37,2013-05-07 18:31:00,
2013-05-07 20:36:00,66.2,58.0,29.93,ESE,112,12.0,12.0,75,0.00,OVC,,0.14,0.0,WeatherDisplay:10.37,2013-05-07 18:36:00,
2013-05-07 20:41:00,66.1,57.9,29.94,ESE,117,9.2,9.2,75,0.00,OVC,,0.14,0.0,WeatherDisplay:10.37,2013-05-07 18:41:00,
2013-05-07 20:46:00,65.9,58.1,29.94,ESE,123,9.2,9.2,76,0.00,OVC,,0.14,0.0,WeatherDisplay:10.37,2013-05-07 18:46:00,
2013-05-07 20:51:00,65.7,58.3,29.94,East,92,6.0,6.0,77,0.00,OVC,,0.14,0.0,WeatherDisplay:10.37,2013-05-07 18:51:00,
2013-05-07 20:56:00,65.5,58.1,29.94,ENE,77,6.9,6.9,77,0.00,OVC,,0.14,0.0,WeatherDisplay:10.37,2013-05-07 18:56:00,
2013-05-07 21:01:00,65.4,58.0,29.94,ENE,78,6.9,6.9,77,0.00,CLR,,0.14,0.0,WeatherDisplay:10.37,2013-05-07 19:01:00,
2013-05-07 21:06:00,65.2,57.8,29.94,East,80,10.4,10.4,77,0.00,CLR,,0.14,0.0,WeatherDisplay:10.37,2013-05-07 19:06:00,
2013-05-07 21:11:00,65.1,57.7,29.94,East,96,8.1,8.1,77,0.00,CLR,,0.14,0.0,WeatherDisplay:10.37,2013-05-07 19:11:00,
2013-05-07 21:16:00,64.9,57.9,29.95,East,84,7.0,7.0,78,0.00,CLR,,0.14,0.0,WeatherDisplay:10.37,2013-05-07 19:16:00,
2013-05-07 21:21:00,64.8,57.8,29.95,East,80,10.4,10.4,78,0.00,CLR,,0.14,0.0,WeatherDisplay:10.37,2013-05-07 19:21:00,
2013-05-07 21:26:00,64.6,57.6,29.95,East,96,8.1,8.1,78,0.00,CLR,,0.14,0.0,WeatherDisplay:10.37,2013-05-07 19:26:00,
2013-05-07 21:31:00,64.4,57.4,29.95,ENE,70,6.9,6.9,78,0.00,CLR,,0.14,0.0,WeatherDisplay:10.37,2013-05-07 19:31:00,
2013-05-07 21:36:00,64.2,57.5,29.95,ENE,77,6.9,6.9,79,0.00,CLR,,0.14,0.0,WeatherDisplay:10.37,2013-05-07 19:36:00,
2013-05-07 21:41:00,64.0,57.4,29.95,East,86,9.2,9.2,79,0.00,CLR,,0.14,0.0,WeatherDisplay:10.37,2013-05-07 19:41:00,
2013-05-07 21:46:00,63.8,57.2,29.95,ESE,115,6.9,6.9,79,0.00,CLR,,0.14,0.0,WeatherDisplay:10.37,2013-05-07 19:46:00,
2013-05-07 21:51:00,63.6,57.3,29.95,East,95,9.2,9.2,80,0.00,CLR,,0.14,0.0,WeatherDisplay:10.37,2013-05-07 19:51:00,
2013-05-07 21:56:00,63.5,57.2,29.95,SE,126,9.2,9.2,80,0.00,CLR,,0.14,0.0,WeatherDisplay:10.37,2013-05-07 19:56:00,
2013-05-07 22:01:00,63.3,57.0,29.95,East,93,8.1,8.1,80,0.00,CLR,,0.14,0.0,WeatherDisplay:10.37,2013-05-07 20:01:00,
2013-05-07 22:06:00,63.3,57.0,29.95,East,99,6.9,6.9,80,0.00,CLR,,0.14,0.0,WeatherDisplay:10.37,2013-05-07 20:06:00,
2013-05-07 22:11:00,63.2,57.3,29.95,SE,138,7.0,7.0,81,0.00,CLR,,0.14,0.0,WeatherDisplay:10.37,2013-05-07 20:11:00,
2013-05-07 22:16:00,63.1,57.2,29.96,ESE,109,14.0,14.0,81,0.00,CLR,,0.14,0.0,WeatherDisplay:10.37,2013-05-07 20:16:00,
2013-05-07 22:21:00,63.0,57.1,29.96,ESE,119,11.5,11.5,81,0.00,CLR,,0.14,0.0,WeatherDisplay:10.37,2013-05-07 20:21:00,
2013-05-07 22:26:00,62.9,57.0,29.96,ESE,105,6.9,6.9,81,0.00,CLR,,0.14,0.0,WeatherDisplay:10.37,2013-05-07 20:26:00,
2013-05-07 22:31:00,62.7,56.8,29.96,ESE,106,6.0,6.0,81,0.00,CLR,,0.14,0.0,WeatherDisplay:10.37,2013-05-07 20:31:00,
2013-05-07 22:36:00,62.6,56.7,29.96,ESE,107,6.9,6.9,81,0.00,CLR,,0.14,0.0,WeatherDisplay:10.37,2013-05-07 20:36:00,
2013-05-07 22:41:00,62.4,56.8,29.96,ESE,104,6.0,6.0,82,0.00,CLR,,0.14,0.0,WeatherDisplay:10.37,2013-05-07 20:41:00,
2013-05-07 22:46:00,62.3,56.7,29.96,ESE,109,7.0,7.0,82,0.00,CLR,,0.14,0.0,WeatherDisplay:10.37,2013-05-07 20:46:00,
2013-05-07 22:51:00,62.2,56.6,29.96,East,101,5.8,5.8,82,0.00,CLR,,0.14,0.0,WeatherDisplay:10.37,2013-05-07 20:51:00,
2013-05-07 22:56:00,62.1,56.5,29.96,ESE,119,6.9,6.9,82,0.00,CLR,,0.14,0.0,WeatherDisplay:10.37,2013-05-07 20:56:00,
2013-05-07 23:01:00,62.0,56.4,29.96,ESE,104,5.0,5.0,82,0.00,CLR,,0.14,0.0,WeatherDisplay:10.37,2013-05-07 21:01:00,
2013-05-07 23:06:00,61.9,56.3,29.96,ESE,123,5.8,5.8,82,0.00,CLR,,0.14,0.0,WeatherDisplay:10.37,2013-05-07 21:06:00,
2013-05-07 23:11:00,61.8,56.2,29.96,ESE,110,6.0,6.0,82,0.00,CLR,,0.14,0.0,WeatherDisplay:10.37,2013-05-07 21:11:00,
2013-05-07 23:16:00,61.7,56.1,29.96,ENE,77,5.8,5.8,82,0.00,CLR,,0.14,0.0,WeatherDisplay:10.37,2013-05-07 21:16:00,
2013-05-07 23:21:00,61.5,56.0,29.96,ESE,105,5.0,5.0,82,0.00,CLR,,0.14,0.0,WeatherDisplay:10.37,2013-05-07 21:21:00,
2013-05-07 23:26:00,61.3,55.8,29.96,East,99,4.6,4.6,82,0.00,CLR,,0.14,0.0,WeatherDisplay:10.37,2013-05-07 21:26:00,
2013-05-07 23:31:00,61.2,56.0,29.96,ESE,109,5.8,5.8,83,0.00,CLR,,0.14,0.0,WeatherDisplay:10.37,2013-05-07 21:31:00,
2013-05-07 23:36:00,61.0,55.8,29.96,ESE,109,6.0,6.0,83,0.00,CLR,,0.14,0.0,WeatherDisplay:10.37,2013-05-07 21:36:00,
2013-05-07 23:41:00,60.9,55.7,29.96,ENE,75,4.6,4.6,83,0.00,CLR,,0.14,0.0,WeatherDisplay:10.37,2013-05-07 21:41:00,
2013-05-07 23:46:00,60.7,55.5,29.96,East,83,4.6,4.6,83,0.00,CLR,,0.14,0.0,WeatherDisplay:10.37,2013-05-07 21:46:00,
2013-05-07 23:51:00,60.7,55.5,29.96,East,83,3.5,3.5,83,0.00,CLR,,0.14,0.0,WeatherDisplay:10.37,2013-05-07 21:51:00,
2013-05-07 23:56:00,60.6,55.4,29.96,East,92,4.0,4.0,83,0.00,CLR,,0.14,0.0,WeatherDisplay:10.37,2013-05-07 21:56:00,